Time;durP1;ratioP1;P1;durP2;ratioP2;P2;SDS_P1;SDS_P2;PMS_P1;PMS_P2;Temp;Humidity;BMP_temperature;BMP_pressure;BME280_temperature;BME280_humidity;BME280_pressure;Samples;Min_cycle;Max_cycle;Signal;HPM_P1;HPM_P2
2020/03/05 00:00:08;;;;;;;3.03;2.67;;;;;;;19.11;38.05;99773.83;;;;-51
2020/03/05 00:03:08;;;;;;;3.25;2.73;;;;;;;19.08;38.11;99769.81;;;;-51
2020/03/05 00:06:01;;;;;;;3.09;2.79;;;;;;;19.06;38.06;99759.70;;;;-51
2020/03/05 00:09:01;;;;;;;3.19;2.73;;;;;;;19.06;38.10;99763.88;;;;-51
2020/03/05 00:12:01;;;;;;;3.82;2.77;;;;;;;19.04;38.09;99751.94;;;;-50
2020/03/05 00:15:01;;;;;;;3.05;2.73;;;;;;;19.03;38.10;99756.58;;;;-51
2020/03/05 00:18:01;;;;;;;3.37;2.74;;;;;;;19.01;38.08;99752.33;;;;-51
2020/03/05 00:21:01;;;;;;;3.22;2.76;;;;;;;19.00;38.13;99747.44;;;;-50
2020/03/05 00:24:01;;;;;;;3.45;2.60;;;;;;;18.98;38.08;99737.67;;;;-51
2020/03/05 00:27:01;;;;;;;3.03;2.71;;;;;;;18.97;38.08;99732.28;;;;-51
2020/03/05 00:30:01;;;;;;;2.93;2.60;;;;;;;18.96;38.13;99726.32;;;;-50
2020/03/05 00:33:01;;;;;;;2.97;2.67;;;;;;;18.94;38.11;99714.70;;;;-51
2020/03/05 00:36:01;;;;;;;3.05;2.57;;;;;;;18.93;38.14;99720.70;;;;-51
2020/03/05 00:39:01;;;;;;;2.68;2.48;;;;;;;18.91;38.13;99718.95;;;;-51
2020/03/05 00:42:01;;;;;;;3.00;2.62;;;;;;;18.91;38.16;99702.79;;;;-51
2020/03/05 00:45:01;;;;;;;3.50;2.86;;;;;;;18.89;38.17;99700.64;;;;-51
2020/03/05 00:48:01;;;;;;;2.89;2.59;;;;;;;18.88;38.18;99697.27;;;;-51
2020/03/05 00:51:01;;;;;;;4.17;2.59;;;;;;;18.87;38.21;99681.00;;;;-51
2020/03/05 01:09:58;;;;;;;3.11;2.53;;;;;;;18.80;38.20;99649.58;;;;-51
2020/03/05 01:13:01;;;;;;;2.73;2.53;;;;;;;18.78;38.28;99639.14;;;;-50
2020/03/05 01:16:01;;;;;;;2.73;2.51;;;;;;;18.77;38.27;99638.27;;;;-51
2020/03/05 01:19:01;;;;;;;3.38;2.57;;;;;;;18.76;38.27;99644.33;;;;-50
2020/03/05 01:22:01;;;;;;;2.89;2.47;;;;;;;18.75;38.31;99645.73;;;;-51
2020/03/05 01:25:01;;;;;;;2.75;2.33;;;;;;;18.74;38.22;99645.19;;;;-51
2020/03/05 01:28:01;;;;;;;2.82;2.49;;;;;;;18.72;38.32;99643.95;;;;-51
2020/03/05 01:31:01;;;;;;;2.85;2.43;;;;;;;18.72;38.25;99635.33;;;;-51
2020/03/05 01:34:01;;;;;;;2.95;2.57;;;;;;;18.71;38.33;99631.55;;;;-51
2020/03/05 01:37:01;;;;;;;2.87;2.55;;;;;;;18.70;38.31;99623.98;;;;-51
2020/03/05 01:40:01;;;;;;;2.57;2.28;;;;;;;18.68;38.35;99621.41;;;;-51
2020/03/05 01:43:01;;;;;;;3.05;2.50;;;;;;;18.67;38.34;99613.78;;;;-51
2020/03/05 01:46:01;;;;;;;3.06;2.62;;;;;;;18.66;38.34;99609.40;;;;-51
2020/03/05 01:49:01;;;;;;;2.83;2.41;;;;;;;18.66;38.34;99606.28;;;;-51
2020/03/05 01:52:01;;;;;;;3.29;2.58;;;;;;;18.65;38.33;99602.57;;;;-51
2020/03/05 01:55:01;;;;;;;2.50;2.30;;;;;;;18.64;38.35;99593.84;;;;-51
2020/03/05 01:58:01;;;;;;;2.72;2.35;;;;;;;18.62;38.35;99583.34;;;;-51
2020/03/05 02:01:01;;;;;;;2.87;2.55;;;;;;;18.61;38.35;99578.39;;;;-51
2020/03/05 02:04:01;;;;;;;2.48;2.24;;;;;;;18.61;38.39;99573.84;;;;-51
2020/03/05 02:07:01;;;;;;;3.09;2.45;;;;;;;18.59;38.38;99564.52;;;;-51
2020/03/05 02:10:01;;;;;;;2.85;2.44;;;;;;;18.58;38.38;99562.30;;;;-51
2020/03/05 02:13:01;;;;;;;2.58;2.30;;;;;;;18.58;38.41;99561.23;;;;-51
2020/03/05 02:16:01;;;;;;;2.47;2.27;;;;;;;18.57;38.42;99559.42;;;;-51
2020/03/05 02:19:01;;;;;;;3.15;2.49;;;;;;;18.57;38.38;99551.23;;;;-51
2020/03/05 02:22:01;;;;;;;2.73;2.37;;;;;;;18.56;38.38;99536.83;;;;-51
2020/03/05 02:25:01;;;;;;;2.35;2.12;;;;;;;18.54;38.42;99528.66;;;;-50
2020/03/05 02:28:01;;;;;;;2.55;2.35;;;;;;;18.53;38.40;99533.55;;;;-51
2020/03/05 02:31:01;;;;;;;2.43;2.23;;;;;;;18.53;38.41;99534.28;;;;-51
2020/03/05 02:34:01;;;;;;;3.35;2.53;;;;;;;18.53;38.45;99532.04;;;;-51
2020/03/05 02:37:01;;;;;;;2.46;2.16;;;;;;;18.51;38.43;99526.22;;;;-51
2020/03/05 02:40:01;;;;;;;2.55;2.31;;;;;;;18.50;38.44;99510.38;;;;-51
2020/03/05 02:43:01;;;;;;;2.59;2.39;;;;;;;18.49;38.46;99503.81;;;;-51
2020/03/05 02:46:01;;;;;;;2.84;2.32;;;;;;;18.48;38.47;99495.53;;;;-51
2020/03/05 02:49:01;;;;;;;2.47;2.21;;;;;;;18.48;38.45;99491.18;;;;-51
2020/03/05 02:52:01;;;;;;;2.43;2.17;;;;;;;18.47;38.49;99490.21;;;;-51
2020/03/05 02:55:01;;;;;;;2.41;2.17;;;;;;;18.47;38.46;99501.41;;;;-51
2020/03/05 02:58:01;;;;;;;2.71;2.30;;;;;;;18.45;38.49;99502.18;;;;-51
2020/03/05 03:01:01;;;;;;;2.44;2.11;;;;;;;18.44;38.50;99502.98;;;;-51
2020/03/05 03:04:01;;;;;;;2.89;2.19;;;;;;;18.44;38.50;99493.79;;;;-51
2020/03/05 03:07:01;;;;;;;2.63;2.24;;;;;;;18.43;38.52;99492.09;;;;-50
2020/03/05 03:10:01;;;;;;;2.94;2.50;;;;;;;18.42;38.51;99481.95;;;;-51
2020/03/05 03:13:01;;;;;;;3.03;2.59;;;;;;;18.41;38.50;99481.98;;;;-51
2020/03/05 03:16:01;;;;;;;2.45;2.25;;;;;;;18.40;38.52;99473.70;;;;-51
2020/03/05 03:19:01;;;;;;;2.65;2.33;;;;;;;18.39;38.51;99468.98;;;;-51
2020/03/05 03:22:01;;;;;;;2.60;2.40;;;;;;;18.38;38.52;99459.59;;;;-51
2020/03/05 03:25:01;;;;;;;3.55;2.29;;;;;;;18.37;38.54;99451.03;;;;-51
2020/03/05 03:28:01;;;;;;;2.27;2.01;;;;;;;18.37;38.52;99453.04;;;;-51
2020/03/05 03:31:01;;;;;;;2.51;2.31;;;;;;;18.37;38.56;99445.08;;;;-51
2020/03/05 03:34:01;;;;;;;2.55;2.20;;;;;;;18.35;38.55;99447.69;;;;-50
2020/03/05 03:37:01;;;;;;;2.47;2.26;;;;;;;18.34;38.52;99460.80;;;;-51
2020/03/05 03:40:01;;;;;;;2.37;2.17;;;;;;;18.35;38.53;99455.05;;;;-51
2020/03/05 03:43:01;;;;;;;2.45;2.10;;;;;;;18.33;38.54;99451.73;;;;-51
2020/03/05 03:46:01;;;;;;;2.43;2.12;;;;;;;18.32;38.53;99447.53;;;;-51
2020/03/05 03:49:01;;;;;;;2.51;2.27;;;;;;;18.32;38.55;99440.01;;;;-50
2020/03/05 03:52:01;;;;;;;2.37;2.17;;;;;;;18.31;38.53;99424.13;;;;-51
2020/03/05 03:55:01;;;;;;;2.47;2.07;;;;;;;18.31;38.53;99416.98;;;;-51
2020/03/05 03:58:01;;;;;;;2.42;2.22;;;;;;;18.29;38.56;99419.72;;;;-51
2020/03/05 04:01:01;;;;;;;2.34;2.13;;;;;;;18.30;38.52;99417.45;;;;-51
2020/03/05 04:04:01;;;;;;;2.79;2.12;;;;;;;18.29;38.56;99415.20;;;;-51
2020/03/05 04:07:01;;;;;;;2.47;2.17;;;;;;;18.28;38.53;99407.28;;;;-51
2020/03/05 04:10:01;;;;;;;2.62;2.20;;;;;;;18.27;38.54;99404.28;;;;-51
2020/03/05 04:13:01;;;;;;;2.32;2.02;;;;;;;18.26;38.58;99407.92;;;;-50
2020/03/05 04:16:01;;;;;;;2.20;2.00;;;;;;;18.25;38.58;99405.72;;;;-51
2020/03/05 04:19:01;;;;;;;2.66;2.19;;;;;;;18.26;38.55;99398.93;;;;-51
2020/03/05 04:22:01;;;;;;;2.55;2.15;;;;;;;18.24;38.60;99395.66;;;;-51
2020/03/05 04:25:01;;;;;;;2.14;1.93;;;;;;;18.24;38.59;99390.05;;;;-51
2020/03/05 04:28:01;;;;;;;2.26;2.06;;;;;;;18.24;38.59;99389.67;;;;-51
2020/03/05 04:31:01;;;;;;;2.37;2.16;;;;;;;18.22;38.60;99385.70;;;;-51
2020/03/05 04:34:01;;;;;;;2.74;2.20;;;;;;;18.22;38.55;99378.15;;;;-50
2020/03/05 04:37:01;;;;;;;2.43;2.23;;;;;;;18.21;38.56;99373.03;;;;-51
2020/03/05 04:40:01;;;;;;;2.37;2.17;;;;;;;18.21;38.58;99371.77;;;;-51
2020/03/05 04:43:01;;;;;;;2.97;2.02;;;;;;;18.20;38.63;99365.22;;;;-51
2020/03/05 04:46:01;;;;;;;2.15;1.95;;;;;;;18.20;38.60;99359.14;;;;-51
2020/03/05 04:49:01;;;;;;;2.21;1.99;;;;;;;18.19;38.58;99348.91;;;;-51
2020/03/05 04:52:01;;;;;;;2.23;1.97;;;;;;;18.19;38.57;99342.80;;;;-51
2020/03/05 04:55:01;;;;;;;2.35;2.13;;;;;;;18.19;38.64;99342.06;;;;-51
2020/03/05 04:58:01;;;;;;;2.26;2.06;;;;;;;18.19;38.61;99342.66;;;;-51
2020/03/05 05:01:01;;;;;;;2.29;2.03;;;;;;;18.20;38.56;99340.75;;;;-51
2020/03/05 05:04:01;;;;;;;2.30;2.10;;;;;;;18.19;38.62;99336.55;;;;-51
2020/03/05 05:07:01;;;;;;;2.46;2.10;;;;;;;18.20;38.62;99336.51;;;;-50
2020/03/05 05:10:01;;;;;;;2.31;2.11;;;;;;;18.20;38.60;99331.39;;;;-51
2020/03/05 05:13:01;;;;;;;2.21;2.00;;;;;;;18.21;38.61;99325.81;;;;-51
2020/03/05 05:16:01;;;;;;;2.54;2.18;;;;;;;18.21;38.58;99312.55;;;;-51
2020/03/05 05:19:01;;;;;;;2.31;2.11;;;;;;;18.21;38.62;99313.28;;;;-51
2020/03/05 05:22:01;;;;;;;2.41;2.21;;;;;;;18.21;38.62;99307.53;;;;-51
2020/03/05 05:25:01;;;;;;;2.26;2.03;;;;;;;18.21;38.63;99306.46;;;;-51
2020/03/05 05:28:01;;;;;;;2.20;2.00;;;;;;;18.22;38.61;99298.54;;;;-51
2020/03/05 05:31:01;;;;;;;2.41;2.17;;;;;;;18.21;38.62;99291.26;;;;-51
2020/03/05 05:34:01;;;;;;;2.37;2.00;;;;;;;18.22;38.61;99291.69;;;;-51
2020/03/05 05:37:01;;;;;;;2.43;2.10;;;;;;;18.22;38.60;99289.92;;;;-51
2020/03/05 05:40:01;;;;;;;2.37;2.09;;;;;;;18.22;38.64;99287.91;;;;-51
2020/03/05 05:43:01;;;;;;;2.65;2.07;;;;;;;18.22;38.62;99280.39;;;;-51
2020/03/05 05:46:01;;;;;;;2.25;2.05;;;;;;;18.22;38.59;99265.28;;;;-51
2020/03/05 05:49:01;;;;;;;2.21;2.01;;;;;;;18.22;38.62;99258.84;;;;-50
2020/03/05 05:52:01;;;;;;;2.20;2.00;;;;;;;18.22;38.60;99255.83;;;;-51
2020/03/05 05:55:01;;;;;;;2.17;1.97;;;;;;;18.21;38.62;99256.73;;;;-50
2020/03/05 05:58:01;;;;;;;2.12;1.91;;;;;;;18.22;38.60;99257.77;;;;-51
2020/03/05 06:01:01;;;;;;;2.09;1.90;;;;;;;18.21;38.63;99249.38;;;;-51
2020/03/05 06:04:01;;;;;;;2.23;2.03;;;;;;;18.21;38.62;99244.53;;;;-51
2020/03/05 06:07:01;;;;;;;2.21;2.01;;;;;;;18.21;38.62;99242.59;;;;-51
2020/03/05 06:10:01;;;;;;;2.55;1.87;;;;;;;18.20;38.62;99243.17;;;;-51
2020/03/05 06:13:01;;;;;;;2.38;2.18;;;;;;;18.20;38.61;99237.25;;;;-51
2020/03/05 06:16:01;;;;;;;2.22;2.02;;;;;;;18.20;38.58;99235.81;;;;-50
2020/03/05 06:19:01;;;;;;;2.16;1.96;;;;;;;18.19;38.62;99234.55;;;;-50
2020/03/05 06:22:01;;;;;;;2.23;2.01;;;;;;;18.19;38.61;99235.19;;;;-51
2020/03/05 06:25:01;;;;;;;2.22;2.02;;;;;;;18.18;38.61;99237.93;;;;-51
2020/03/05 06:28:01;;;;;;;2.15;1.93;;;;;;;18.18;38.58;99240.77;;;;-51
2020/03/05 06:31:01;;;;;;;2.23;2.03;;;;;;;18.18;38.57;99237.33;;;;-51
2020/03/05 06:34:01;;;;;;;2.11;1.91;;;;;;;18.17;38.58;99233.95;;;;-51
2020/03/05 06:37:01;;;;;;;2.19;1.99;;;;;;;18.16;38.55;99229.28;;;;-50
2020/03/05 06:40:01;;;;;;;2.89;2.10;;;;;;;18.17;38.58;99229.88;;;;-51
2020/03/05 06:43:01;;;;;;;2.23;2.03;;;;;;;18.15;38.61;99223.91;;;;-51
2020/03/05 06:46:01;;;;;;;2.21;1.84;;;;;;;18.16;38.58;99226.84;;;;-51
2020/03/05 06:49:01;;;;;;;2.29;2.09;;;;;;;18.14;38.59;99224.45;;;;-50
2020/03/05 06:52:01;;;;;;;2.14;1.94;;;;;;;18.14;38.58;99219.03;;;;-51
2020/03/05 06:55:01;;;;;;;2.22;2.02;;;;;;;18.14;38.58;99209.91;;;;-51
2020/03/05 06:58:01;;;;;;;2.45;2.04;;;;;;;18.13;38.61;99205.47;;;;-50
2020/03/05 07:01:01;;;;;;;2.17;1.97;;;;;;;18.12;38.60;99201.09;;;;-52
2020/03/05 07:04:01;;;;;;;2.31;2.00;;;;;;;18.12;38.59;99196.98;;;;-51
2020/03/05 07:07:01;;;;;;;3.77;2.03;;;;;;;18.12;38.55;99194.74;;;;-52
2020/03/05 07:10:01;;;;;;;2.23;2.03;;;;;;;18.11;38.58;99186.59;;;;-51
2020/03/05 07:13:01;;;;;;;2.19;1.99;;;;;;;18.11;38.58;99178.08;;;;-51
2020/03/05 07:16:01;;;;;;;2.26;2.03;;;;;;;18.11;38.59;99169.89;;;;-51
2020/03/05 07:19:01;;;;;;;2.49;1.99;;;;;;;18.11;38.56;99166.98;;;;-51
2020/03/05 07:22:01;;;;;;;2.05;1.85;;;;;;;18.10;38.58;99159.84;;;;-52
2020/03/05 07:25:01;;;;;;;2.22;1.97;;;;;;;18.11;38.55;99161.14;;;;-51
2020/03/05 07:28:01;;;;;;;2.11;1.91;;;;;;;18.10;38.57;99155.16;;;;-52
2020/03/05 07:31:01;;;;;;;2.29;2.09;;;;;;;18.10;38.54;99145.64;;;;-51
2020/03/05 07:34:01;;;;;;;2.51;1.90;;;;;;;18.10;38.60;99137.55;;;;-52
2020/03/05 07:37:01;;;;;;;2.53;2.09;;;;;;;18.09;38.56;99125.56;;;;-51
2020/03/05 07:40:01;;;;;;;2.10;1.89;;;;;;;18.08;38.58;99121.62;;;;-52
2020/03/05 07:43:01;;;;;;;2.25;2.01;;;;;;;18.08;38.56;99110.93;;;;-52
2020/03/05 07:46:01;;;;;;;2.21;2.00;;;;;;;18.09;38.55;99106.85;;;;-51
2020/03/05 07:49:01;;;;;;;2.52;2.05;;;;;;;18.09;38.56;99102.44;;;;-52
2020/03/05 07:52:01;;;;;;;2.00;1.80;;;;;;;18.08;38.53;99099.73;;;;-51
2020/03/05 07:55:01;;;;;;;2.17;1.97;;;;;;;18.08;38.55;99087.20;;;;-51
2020/03/05 07:58:01;;;;;;;2.73;1.99;;;;;;;18.08;38.54;99080.59;;;;-52
2020/03/05 08:01:01;;;;;;;2.09;1.89;;;;;;;18.08;38.53;99071.50;;;;-51
2020/03/05 08:04:01;;;;;;;2.13;1.93;;;;;;;18.08;38.55;99057.14;;;;-52
2020/03/05 08:07:01;;;;;;;2.11;1.91;;;;;;;18.07;38.53;99055.45;;;;-51
2020/03/05 08:10:01;;;;;;;2.17;1.94;;;;;;;18.07;38.55;99049.86;;;;-52
2020/03/05 08:13:01;;;;;;;2.15;1.95;;;;;;;18.08;38.53;99052.86;;;;-51
2020/03/05 08:16:01;;;;;;;2.24;1.97;;;;;;;18.07;38.56;99037.73;;;;-52
2020/03/05 08:19:01;;;;;;;2.40;2.07;;;;;;;18.08;38.55;99027.14;;;;-51
2020/03/05 08:22:01;;;;;;;2.37;2.10;;;;;;;18.07;38.58;99021.53;;;;-52
2020/03/05 08:25:01;;;;;;;3.10;1.94;;;;;;;18.07;38.57;99011.67;;;;-51
2020/03/05 08:28:01;;;;;;;1.87;1.74;;;;;;;18.08;38.55;99009.27;;;;-51
2020/03/05 08:31:01;;;;;;;1.99;1.79;;;;;;;18.07;38.58;99004.09;;;;-51
2020/03/05 08:34:01;;;;;;;2.50;2.00;;;;;;;18.06;38.57;98996.88;;;;-51
2020/03/05 08:37:01;;;;;;;2.22;1.91;;;;;;;18.07;38.59;98994.97;;;;-51
2020/03/05 08:40:01;;;;;;;2.20;1.88;;;;;;;18.08;38.56;98990.72;;;;-52
2020/03/05 08:43:01;;;;;;;2.13;1.77;;;;;;;18.07;38.57;98978.50;;;;-51
2020/03/05 08:46:01;;;;;;;5.88;2.46;;;;;;;17.91;37.62;98976.44;;;;-51
2020/03/05 08:49:01;;;;;;;7.33;2.98;;;;;;;17.71;37.02;98969.48;;;;-49
2020/03/05 08:52:01;;;;;;;6.36;3.28;;;;;;;17.80;37.77;98967.28;;;;-53
2020/03/05 08:55:01;;;;;;;6.59;2.77;;;;;;;17.88;38.05;98970.52;;;;-52
2020/03/05 08:58:01;;;;;;;6.39;2.60;;;;;;;17.92;38.32;98968.45;;;;-52
2020/03/05 09:01:01;;;;;;;3.55;2.43;;;;;;;17.97;38.42;98969.32;;;;-51
2020/03/05 09:04:01;;;;;;;4.25;2.55;;;;;;;18.01;38.45;98970.59;;;;-53
2020/03/05 09:07:01;;;;;;;4.19;2.38;;;;;;;18.06;38.45;98962.47;;;;-53
2020/03/05 09:10:01;;;;;;;3.37;2.28;;;;;;;18.10;38.44;98963.98;;;;-53
2020/03/05 09:13:01;;;;;;;3.16;2.40;;;;;;;18.14;38.47;98956.56;;;;-53
2020/03/05 09:16:01;;;;;;;3.46;2.43;;;;;;;18.22;38.64;98953.00;;;;-53
2020/03/05 09:19:01;;;;;;;4.67;2.24;;;;;;;18.28;38.78;98947.09;;;;-53
2020/03/05 09:22:01;;;;;;;3.68;2.29;;;;;;;18.36;38.86;98940.65;;;;-54
2020/03/05 09:25:01;;;;;;;3.15;2.30;;;;;;;18.43;38.80;98942.48;;;;-59
2020/03/05 09:28:01;;;;;;;3.69;2.15;;;;;;;18.51;39.02;98939.41;;;;-52
2020/03/05 09:31:01;;;;;;;2.47;2.12;;;;;;;18.58;39.14;98927.73;;;;-53
2020/03/05 09:34:01;;;;;;;3.81;2.31;;;;;;;18.64;39.22;98924.67;;;;-51
2020/03/05 09:37:01;;;;;;;3.47;2.33;;;;;;;18.67;39.34;98909.95;;;;-51
2020/03/05 09:40:01;;;;;;;4.39;2.32;;;;;;;18.72;39.12;98907.20;;;;-56
2020/03/05 09:43:01;;;;;;;3.21;2.31;;;;;;;18.78;39.00;98905.09;;;;-57
2020/03/05 09:46:01;;;;;;;3.76;2.09;;;;;;;18.79;38.93;98893.50;;;;-57
2020/03/05 09:49:01;;;;;;;2.71;2.13;;;;;;;18.82;38.71;98889.38;;;;-57
2020/03/05 09:52:01;;;;;;;3.44;2.14;;;;;;;18.84;38.72;98883.14;;;;-57
2020/03/05 09:55:01;;;;;;;2.47;1.99;;;;;;;18.85;38.50;98867.27;;;;-57
2020/03/05 09:58:01;;;;;;;3.59;2.04;;;;;;;18.86;38.50;98854.02;;;;-57
2020/03/05 10:01:01;;;;;;;3.12;2.20;;;;;;;18.94;39.07;98846.70;;;;-56
2020/03/05 10:04:01;;;;;;;3.29;2.13;;;;;;;18.96;39.05;98849.92;;;;-56
2020/03/05 10:07:01;;;;;;;2.66;2.05;;;;;;;18.98;38.66;98840.25;;;;-56
2020/03/05 10:10:01;;;;;;;2.33;1.99;;;;;;;19.02;38.99;98837.48;;;;-62
2020/03/05 10:13:01;;;;;;;2.67;2.11;;;;;;;19.04;39.00;98828.91;;;;-63
2020/03/05 10:16:01;;;;;;;3.49;1.95;;;;;;;19.07;38.65;98826.78;;;;-58
2020/03/05 10:19:01;;;;;;;3.77;2.28;;;;;;;19.08;38.57;98826.33;;;;-63
2020/03/05 10:22:01;;;;;;;2.65;2.15;;;;;;;19.12;38.99;98828.05;;;;-61
2020/03/05 10:25:01;;;;;;;2.80;1.94;;;;;;;19.16;39.09;98824.33;;;;-54
2020/03/05 10:28:19;;;;;;;3.37;2.17;;;;;;;19.19;39.07;98819.70;;;;-46
2020/03/05 10:31:01;;;;;;;2.77;2.00;;;;;;;19.21;38.67;98810.52;;;;-53
2020/03/05 10:34:01;;;;;;;3.85;2.14;;;;;;;19.24;39.04;98801.98;;;;-51
2020/03/05 10:37:01;;;;;;;4.03;2.29;;;;;;;19.26;38.86;98795.16;;;;-58
2020/03/05 10:40:01;;;;;;;3.75;2.00;;;;;;;19.27;38.62;98789.65;;;;-59
2020/03/05 10:43:01;;;;;;;3.84;1.98;;;;;;;19.30;38.64;98789.34;;;;-46
2020/03/05 10:46:02;;;;;;;4.65;2.23;;;;;;;19.32;38.75;98789.81;;;;-51
2020/03/05 10:49:01;;;;;;;3.53;2.11;;;;;;;19.33;38.53;98773.94;;;;-50
2020/03/05 10:52:01;;;;;;;2.26;1.99;;;;;;;19.34;38.43;98762.91;;;;-49
2020/03/05 10:55:01;;;;;;;4.27;2.08;;;;;;;19.34;38.57;98747.23;;;;-50
2020/03/05 10:58:01;;;;;;;3.14;1.99;;;;;;;19.34;38.41;98741.65;;;;-50
2020/03/05 11:01:01;;;;;;;5.34;2.07;;;;;;;19.34;38.52;98747.27;;;;-47
2020/03/05 11:04:01;;;;;;;2.83;1.96;;;;;;;19.38;38.81;98733.17;;;;-59
2020/03/05 11:07:01;;;;;;;2.44;1.92;;;;;;;19.39;38.88;98720.30;;;;-52
2020/03/05 11:10:01;;;;;;;3.12;1.86;;;;;;;19.40;38.96;98712.27;;;;-53
2020/03/05 11:13:01;;;;;;;2.36;1.99;;;;;;;19.42;39.03;98705.19;;;;-47
2020/03/05 11:16:01;;;;;;;4.29;2.05;;;;;;;19.45;38.97;98693.69;;;;-54
2020/03/05 11:19:01;;;;;;;3.47;1.81;;;;;;;19.46;38.92;98681.31;;;;-60
2020/03/05 11:22:01;;;;;;;4.16;1.91;;;;;;;19.49;39.00;98675.50;;;;-55
2020/03/05 11:25:01;;;;;;;2.70;1.86;;;;;;;19.52;38.98;98666.51;;;;-57
2020/03/05 11:28:01;;;;;;;2.40;1.95;;;;;;;19.54;38.82;98658.02;;;;-51
2020/03/05 11:31:01;;;;;;;6.71;1.94;;;;;;;19.56;38.85;98653.86;;;;-53
2020/03/05 11:34:01;;;;;;;2.95;1.90;;;;;;;19.56;38.72;98640.02;;;;-46
2020/03/05 11:37:01;;;;;;;2.46;1.87;;;;;;;19.59;39.16;98628.77;;;;-46
2020/03/05 11:40:01;;;;;;;3.29;1.91;;;;;;;19.59;38.91;98619.64;;;;-45
2020/03/05 11:43:01;;;;;;;3.35;1.80;;;;;;;19.60;38.95;98608.27;;;;-45
2020/03/05 11:46:01;;;;;;;3.94;2.09;;;;;;;19.61;38.99;98599.34;;;;-50
2020/03/05 11:49:01;;;;;;;2.45;1.87;;;;;;;19.62;38.90;98582.27;;;;-48
2020/03/05 11:52:01;;;;;;;1.83;1.65;;;;;;;19.63;38.73;98567.47;;;;-49
2020/03/05 11:55:01;;;;;;;3.27;1.98;;;;;;;19.63;38.82;98562.00;;;;-46
2020/03/05 11:58:01;;;;;;;6.40;1.85;;;;;;;19.63;38.93;98558.08;;;;-48
2020/03/05 12:01:01;;;;;;;2.36;1.90;;;;;;;19.63;39.06;98537.98;;;;-50
2020/03/05 12:04:01;;;;;;;3.19;1.88;;;;;;;19.64;38.94;98522.44;;;;-49
2020/03/05 12:07:01;;;;;;;3.59;2.02;;;;;;;19.65;38.82;98512.13;;;;-46
2020/03/05 12:10:01;;;;;;;2.42;1.91;;;;;;;19.63;38.62;98509.95;;;;-45
2020/03/05 12:13:01;;;;;;;3.05;1.65;;;;;;;19.62;38.35;98497.19;;;;-46
2020/03/05 12:16:01;;;;;;;2.63;1.95;;;;;;;19.62;38.38;98478.61;;;;-45
2020/03/05 12:19:01;;;;;;;3.19;2.02;;;;;;;19.61;38.41;98469.07;;;;-46
2020/03/05 12:22:01;;;;;;;2.79;2.00;;;;;;;19.61;38.34;98455.42;;;;-46
2020/03/05 12:25:01;;;;;;;2.70;2.01;;;;;;;19.60;38.27;98445.37;;;;-45
2020/03/05 12:28:01;;;;;;;3.01;2.09;;;;;;;19.59;38.29;98441.33;;;;-45
2020/03/05 12:31:01;;;;;;;2.18;1.80;;;;;;;19.59;38.28;98426.35;;;;-46
2020/03/05 12:34:01;;;;;;;2.68;1.89;;;;;;;19.57;38.23;98413.95;;;;-47
2020/03/05 12:37:01;;;;;;;2.06;1.79;;;;;;;19.58;38.26;98408.67;;;;-48
2020/03/05 12:40:01;;;;;;;2.10;1.87;;;;;;;19.57;38.24;98403.06;;;;-45
2020/03/05 12:43:01;;;;;;;2.53;1.84;;;;;;;19.57;38.20;98391.25;;;;-45
2020/03/05 12:46:01;;;;;;;2.05;1.85;;;;;;;19.56;38.13;98385.63;;;;-47
2020/03/05 12:49:01;;;;;;;4.76;1.91;;;;;;;19.56;38.16;98362.95;;;;-45
2020/03/05 12:52:01;;;;;;;2.06;1.86;;;;;;;19.56;38.11;98361.78;;;;-45
2020/03/05 12:55:01;;;;;;;2.32;1.91;;;;;;;19.56;38.08;98361.03;;;;-45
2020/03/05 12:58:01;;;;;;;2.37;1.78;;;;;;;19.55;38.06;98346.02;;;;-46
2020/03/05 13:01:01;;;;;;;2.69;1.85;;;;;;;19.54;38.27;98343.67;;;;-47
2020/03/05 13:04:01;;;;;;;3.09;2.05;;;;;;;19.52;38.46;98333.36;;;;-47
2020/03/05 13:07:01;;;;;;;3.57;2.29;;;;;;;19.56;38.70;98323.09;;;;-48
2020/03/05 13:10:01;;;;;;;3.77;2.15;;;;;;;19.56;38.64;98304.36;;;;-54
2020/03/05 13:13:01;;;;;;;6.38;2.27;;;;;;;19.56;38.41;98301.68;;;;-54
2020/03/05 13:16:01;;;;;;;4.49;2.11;;;;;;;19.54;38.40;98297.97;;;;-55
2020/03/05 13:19:01;;;;;;;4.61;2.19;;;;;;;19.54;38.30;98294.45;;;;-55
2020/03/05 13:22:01;;;;;;;3.81;1.90;;;;;;;19.53;38.39;98299.05;;;;-54
2020/03/05 13:25:01;;;;;;;3.85;1.98;;;;;;;19.51;38.20;98291.67;;;;-54
2020/03/05 13:28:03;;;;;;;2.25;2.03;;;;;;;19.52;38.30;98283.39;;;;-55
2020/03/05 13:31:01;;;;;;;3.45;2.04;;;;;;;19.50;38.16;98273.08;;;;-54
2020/03/05 13:34:01;;;;;;;3.69;1.98;;;;;;;19.51;38.31;98268.41;;;;-55
2020/03/05 13:37:01;;;;;;;2.53;2.00;;;;;;;19.50;38.24;98271.58;;;;-55
2020/03/05 13:40:01;;;;;;;3.08;2.03;;;;;;;19.50;38.29;98255.25;;;;-54
2020/03/05 13:43:01;;;;;;;4.19;1.89;;;;;;;19.48;38.30;98248.95;;;;-55
2020/03/05 13:46:01;;;;;;;3.66;2.00;;;;;;;19.49;38.16;98245.87;;;;-54
2020/03/05 13:49:01;;;;;;;2.79;2.05;;;;;;;19.47;38.27;98226.34;;;;-55
2020/03/05 13:52:01;;;;;;;2.93;2.11;;;;;;;19.47;38.24;98225.19;;;;-54
2020/03/05 13:55:01;;;;;;;2.21;1.95;;;;;;;19.46;38.26;98216.30;;;;-55
2020/03/05 13:58:01;;;;;;;3.33;2.13;;;;;;;19.46;38.26;98208.61;;;;-54
2020/03/05 14:01:01;;;;;;;3.22;2.01;;;;;;;19.45;38.27;98197.38;;;;-54
2020/03/05 14:04:01;;;;;;;2.41;2.04;;;;;;;19.44;38.32;98190.34;;;;-55
2020/03/05 14:07:01;;;;;;;2.52;1.87;;;;;;;19.44;38.27;98182.91;;;;-55
2020/03/05 14:10:01;;;;;;;2.94;1.99;;;;;;;19.45;38.30;98172.61;;;;-54
2020/03/05 14:13:01;;;;;;;2.55;1.93;;;;;;;19.44;38.37;98164.06;;;;-54
2020/03/05 14:16:01;;;;;;;3.35;1.79;;;;;;;19.43;38.33;98152.53;;;;-55
2020/03/05 14:19:01;;;;;;;3.03;1.83;;;;;;;19.43;38.31;98146.00;;;;-54
2020/03/05 14:22:01;;;;;;;2.19;1.87;;;;;;;19.44;38.36;98138.46;;;;-55
2020/03/05 14:25:01;;;;;;;2.17;1.94;;;;;;;19.43;38.35;98131.28;;;;-54
2020/03/05 14:28:01;;;;;;;2.23;2.00;;;;;;;19.44;38.30;98124.07;;;;-55
2020/03/05 14:31:01;;;;;;;2.07;1.82;;;;;;;19.44;38.40;98121.39;;;;-54
2020/03/05 14:34:01;;;;;;;1.99;1.79;;;;;;;19.43;38.34;98118.11;;;;-55
2020/03/05 14:37:01;;;;;;;2.01;1.79;;;;;;;19.44;38.36;98100.13;;;;-55
2020/03/05 14:40:01;;;;;;;3.25;1.80;;;;;;;19.43;38.30;98091.83;;;;-54
2020/03/05 14:43:01;;;;;;;2.13;1.82;;;;;;;19.44;38.33;98083.14;;;;-54
2020/03/05 14:46:01;;;;;;;2.17;1.87;;;;;;;19.43;38.37;98070.84;;;;-55
2020/03/05 14:49:01;;;;;;;2.21;1.90;;;;;;;19.42;38.35;98070.02;;;;-55
2020/03/05 14:52:01;;;;;;;1.89;1.63;;;;;;;19.43;38.39;98066.06;;;;-54
2020/03/05 14:55:01;;;;;;;2.12;1.79;;;;;;;19.42;38.33;98057.70;;;;-54
2020/03/05 14:58:01;;;;;;;3.09;1.95;;;;;;;19.43;38.38;98039.71;;;;-55
2020/03/05 15:01:01;;;;;;;2.00;1.80;;;;;;;19.43;38.38;98029.41;;;;-55
2020/03/05 15:04:01;;;;;;;2.55;1.89;;;;;;;19.42;38.40;98024.49;;;;-55
2020/03/05 15:07:01;;;;;;;2.54;1.87;;;;;;;19.43;38.41;98017.64;;;;-55
2020/03/05 15:10:01;;;;;;;1.96;1.82;;;;;;;19.43;38.40;97999.88;;;;-54
2020/03/05 15:13:01;;;;;;;2.21;1.87;;;;;;;19.43;38.41;98000.88;;;;-56
2020/03/05 15:16:01;;;;;;;2.95;1.84;;;;;;;19.43;38.42;97994.78;;;;-55
2020/03/05 15:19:01;;;;;;;2.07;1.75;;;;;;;19.43;38.44;97983.89;;;;-55
2020/03/05 15:22:01;;;;;;;3.07;1.75;;;;;;;19.42;38.45;97976.11;;;;-54
2020/03/05 15:25:01;;;;;;;2.07;1.87;;;;;;;19.42;38.46;97973.45;;;;-55
2020/03/05 15:28:01;;;;;;;2.31;1.78;;;;;;;19.44;38.49;97963.55;;;;-55
2020/03/05 15:31:01;;;;;;;2.43;1.80;;;;;;;19.43;38.43;97954.54;;;;-55
2020/03/05 15:34:01;;;;;;;2.31;1.84;;;;;;;19.44;38.43;97944.30;;;;-55
2020/03/05 15:37:01;;;;;;;2.07;1.73;;;;;;;19.44;38.44;97936.95;;;;-55
2020/03/05 15:40:01;;;;;;;2.56;1.76;;;;;;;19.44;38.49;97941.30;;;;-54
2020/03/05 15:43:01;;;;;;;2.62;1.77;;;;;;;19.45;38.45;97935.86;;;;-55
2020/03/05 15:46:01;;;;;;;3.05;1.70;;;;;;;19.45;38.47;97934.77;;;;-54
2020/03/05 15:49:01;;;;;;;1.92;1.60;;;;;;;19.45;38.43;97922.33;;;;-54
2020/03/05 15:52:01;;;;;;;2.39;1.89;;;;;;;19.46;38.45;97915.13;;;;-54
2020/03/05 15:55:01;;;;;;;1.69;1.59;;;;;;;19.47;38.52;97914.11;;;;-55
2020/03/05 15:58:01;;;;;;;2.04;1.80;;;;;;;19.47;38.47;97906.84;;;;-55
2020/03/05 16:01:01;;;;;;;1.94;1.74;;;;;;;19.47;38.42;97897.47;;;;-55
2020/03/05 16:04:01;;;;;;;2.36;1.69;;;;;;;19.47;38.48;97893.27;;;;-55
2020/03/05 16:07:01;;;;;;;2.31;1.71;;;;;;;19.47;38.48;97890.53;;;;-54
2020/03/05 16:10:00;;;;;;;2.00;1.80;;;;;;;19.47;38.46;97888.86;;;;-55
2020/03/05 16:13:01;;;;;;;1.96;1.73;;;;;;;19.49;38.50;97884.33;;;;-55
2020/03/05 16:16:01;;;;;;;1.65;1.55;;;;;;;19.50;38.50;97878.91;;;;-55
2020/03/05 16:19:01;;;;;;;1.71;1.61;;;;;;;19.48;38.48;97872.13;;;;-54
2020/03/05 16:22:01;;;;;;;2.12;1.84;;;;;;;19.48;38.43;97870.34;;;;-54
2020/03/05 16:25:01;;;;;;;1.83;1.68;;;;;;;19.49;38.49;97869.01;;;;-55
2020/03/05 16:28:01;;;;;;;2.02;1.80;;;;;;;19.48;38.50;97862.59;;;;-54
2020/03/05 16:31:01;;;;;;;2.12;1.83;;;;;;;19.49;38.56;97858.23;;;;-55
2020/03/05 16:34:01;;;;;;;4.99;1.70;;;;;;;19.53;38.68;97852.95;;;;-57
2020/03/05 16:37:01;;;;;;;2.94;1.59;;;;;;;19.54;39.29;97850.20;;;;-59
2020/03/05 16:40:01;;;;;;;2.07;1.59;;;;;;;19.54;39.31;97840.75;;;;-62
2020/03/05 16:43:01;;;;;;;2.73;1.72;;;;;;;19.57;39.58;97843.49;;;;-56
2020/03/05 16:46:01;;;;;;;2.56;1.63;;;;;;;19.59;39.58;97851.97;;;;-63
2020/03/05 16:49:01;;;;;;;3.41;1.80;;;;;;;19.61;39.62;97852.95;;;;-65
2020/03/05 16:52:01;;;;;;;2.46;1.78;;;;;;;19.63;39.76;97852.06;;;;-58
2020/03/05 16:55:01;;;;;;;7.46;1.71;;;;;;;19.65;39.72;97847.28;;;;-55
2020/03/05 16:58:01;;;;;;;1.87;1.69;;;;;;;19.68;39.75;97841.41;;;;-56
2020/03/05 17:01:01;;;;;;;2.86;1.68;;;;;;;19.70;39.72;97845.79;;;;-58
2020/03/05 17:04:01;;;;;;;3.47;1.81;;;;;;;19.71;39.69;97846.80;;;;-58
2020/03/05 17:07:01;;;;;;;4.02;1.74;;;;;;;19.75;39.69;97851.48;;;;-59
2020/03/05 17:10:01;;;;;;;5.06;1.79;;;;;;;19.78;39.40;97859.77;;;;-57